Home > Products > Valid Products > TAF

000
FTUS43 KICT 011500 AAA
TAFRSL
TAF AMD
KRSL 011500Z 0115/0212 17017G25KT P6SM SCT035
     FM011800 18020G30KT P6SM SCT060
     FM020100 18017G26KT P6SM SCT050 BKN150
     FM020400 35012KT P6SM BKN120=



000
FTUS43 KICT 011413 AAB
TAFICT
TAF AMD
KICT 011413Z 0114/0212 15008KT P6SM SCT120
     FM011500 16016G24KT P6SM SKC
     FM011800 17024G34KT P6SM SCT050
     FM020200 17019G29KT P6SM BKN035
     FM020600 17018G28KT P6SM BKN010=



000
FTUS43 KICT 011354 AAA
TAFHUT
TAF AMD
KHUT 011354Z 0114/0212 13008KT P6SM SCT250
      TEMPO 0114/0115 5SM BR
     FM011500 16016G24KT P6SM SCT012
     FM011700 17024G34KT P6SM SCT050
     FM020600 35012KT P6SM BKN150=



000
FTUS43 KICT 011353 AAA
TAFCNU
TAF AMD
KCNU 011353Z 0114/0212 15006KT P6SM BKN120
     FM011600 17014KT P6SM SCT120
     FM011800 17021G30KT P6SM SCT040
     FM020300 17018G28KT P6SM BKN025
     FM020600 17018G28KT P6SM VCTS BKN060CB=



000
FTUS43 KICT 011140
TAFICT
TAF
KICT 011140Z 0112/0212 13005KT P6SM BKN250
     FM011400 15008KT 5SM BR BKN010
      TEMPO 0114/0115 2SM BR BKN006
     FM011500 16016G24KT P6SM SCT005 BKN015
     FM011800 17024G34KT P6SM SCT050
     FM020200 17019G29KT P6SM BKN035
     FM020600 17018G28KT P6SM BKN010=



000
FTUS43 KICT 011140
TAFHUT
TAF
KHUT 011140Z 0112/0212 13008KT P6SM SCT250
      TEMPO 0113/0115 4SM BR BKN006
     FM011500 16016G24KT P6SM SCT012
     FM011700 17024G34KT P6SM SCT050
     FM020600 35012KT P6SM BKN150=



000
FTUS43 KICT 011140
TAFCNU
TAF
KCNU 011140Z 0112/0212 13007KT P6SM SCT100 BKN250
      TEMPO 0112/0114 4SM BR
     FM011400 15006KT P6SM SCT008 BKN012
     FM011600 17014KT P6SM SCT015
     FM011800 17021G30KT P6SM SCT040
     FM020300 17018G28KT P6SM BKN025
     FM020600 17018G28KT P6SM VCTS BKN060CB=



000
FTUS43 KICT 011140
TAFRSL
TAF
KRSL 011140Z 0112/0212 18011KT P6SM SKC
     FM011400 17012KT P6SM SCT006
     FM011600 17016G23KT P6SM SCT035
     FM011800 18020G30KT P6SM SCT060
     FM020100 18017G26KT P6SM SCT050 BKN150
     FM020400 35012KT P6SM BKN120=



000
FTUS43 KICT 011140
TAFSLN
TAF
KSLN 011140Z 0112/0212 15012KT P6SM SCT100 BKN250
     FM011400 16012KT P6SM SCT006
     FM011500 17016G24KT P6SM SCT020
     FM011800 17023G33KT P6SM SCT060
     FM020200 18018G26KT P6SM VCTS SCT050 BKN150CB
     FM020500 35012KT P6SM SCT012 BKN040=



000
FTUS43 KICT 011140
TAFICT
TAF
KICT 011140Z 0112/0212 13005KT P6SM BKN250
     FM011400 15008KT 5SM BR BKN010
      TEMPO 0114/0115 2SM BR BKN006
     FM011500 16016G24KT P6SM SCT005 BKN015
     FM011800 17024G34KT P6SM SCT050
     FM020200 17019G29KT P6SM BKN035
     FM020600 17018G28KT P6SM BKN010=



000
FTUS43 KICT 011140
TAFHUT
TAF
KHUT 011140Z 0112/0212 13008KT P6SM SCT250
      TEMPO 0113/0115 4SM BR BKN006
     FM011500 16016G24KT P6SM SCT012
     FM011700 17024G34KT P6SM SCT050
     FM020600 35012KT P6SM BKN150=



000
FTUS43 KICT 011140
TAFSLN
TAF
KSLN 011140Z 0112/0212 15012KT P6SM SCT100 BKN250
     FM011400 16012KT P6SM SCT006
     FM011500 17016G24KT P6SM SCT020
     FM011800 17023G33KT P6SM SCT060
     FM020200 18018G26KT P6SM VCTS SCT050 BKN150CB
     FM020500 35012KT P6SM SCT012 BKN040=



000
FTUS43 KICT 011140
TAFRSL
TAF
KRSL 011140Z 0112/0212 18011KT P6SM SKC
     FM011400 17012KT P6SM SCT006
     FM011600 17016G23KT P6SM SCT035
     FM011800 18020G30KT P6SM SCT060
     FM020100 18017G26KT P6SM SCT050 BKN150
     FM020400 35012KT P6SM BKN120=



000
FTUS43 KICT 011140
TAFCNU
TAF
KCNU 011140Z 0112/0212 13007KT P6SM SCT100 BKN250
      TEMPO 0112/0114 4SM BR
     FM011400 15006KT P6SM SCT008 BKN012
     FM011600 17014KT P6SM SCT015
     FM011800 17021G30KT P6SM SCT040
     FM020300 17018G28KT P6SM BKN025
     FM020600 17018G28KT P6SM VCTS BKN060CB=



000
FTUS43 KICT 010522
TAFHUT
TAF
KHUT 010522Z 0106/0206 13008KT P6SM SCT250
      TEMPO 0111/0115 4SM BR BKN006
     FM011500 16016G24KT P6SM SCT012
     FM011700 17024G34KT P6SM SCT050=



000
FTUS43 KICT 010522
TAFSLN
TAF
KSLN 010522Z 0106/0206 15008KT P6SM SKC
     FM011100 15012KT P6SM SCT006
     FM011500 17016G24KT P6SM SCT020
     FM011800 17023G33KT P6SM SCT060
     FM020300 18018G26KT P6SM VCTS SCT050 BKN150CB=



000
FTUS43 KICT 010522
TAFRSL
TAF
KRSL 010522Z 0106/0206 15012KT P6SM SKC
     FM011100 16011KT P6SM SCT006
     FM011600 17016G23KT P6SM SCT035
     FM011800 18020G30KT P6SM SCT060
     FM020200 18017G26KT P6SM VCTS SCT050 BKN150CB=



000
FTUS43 KICT 010522
TAFCNU
TAF
KCNU 010522Z 0106/0206 12006KT P6SM SKC
     FM011100 13007KT P6SM SCT008 BKN012
     FM011500 17014KT P6SM SCT015
     FM011700 17021G30KT P6SM SCT040=



000
FTUS43 KICT 010522
TAFICT
TAF
KICT 010522Z 0106/0206 12007KT P6SM BKN250
     FM011000 15008KT 5SM BR BKN010
      TEMPO 0111/0115 3SM BR BKN006
     FM011500 16016G24KT P6SM SCT005 BKN015
     FM011700 17024G34KT P6SM SCT050
     FM020200 17019G29KT P6SM BKN035=



000
FTUS43 KICT 010522
TAFCNU
TAF
KCNU 010522Z 0106/0206 12006KT P6SM SKC
     FM011100 13007KT P6SM SCT008 BKN012
     FM011500 17014KT P6SM SCT015
     FM011700 17021G30KT P6SM SCT040=



000
FTUS43 KICT 010522
TAFICT
TAF
KICT 010522Z 0106/0206 12007KT P6SM BKN250
     FM011000 15008KT 5SM BR BKN010
      TEMPO 0111/0115 3SM BR BKN006
     FM011500 16016G24KT P6SM SCT005 BKN015
     FM011700 17024G34KT P6SM SCT050
     FM020200 17019G29KT P6SM BKN035=



000
FTUS43 KICT 010522
TAFRSL
TAF
KRSL 010522Z 0106/0206 15012KT P6SM SKC
     FM011100 16011KT P6SM SCT006
     FM011600 17016G23KT P6SM SCT035
     FM011800 18020G30KT P6SM SCT060
     FM020200 18017G26KT P6SM VCTS SCT050 BKN150CB=



000
FTUS43 KICT 010522
TAFSLN
TAF
KSLN 010522Z 0106/0206 15008KT P6SM SKC
     FM011100 15012KT P6SM SCT006
     FM011500 17016G24KT P6SM SCT020
     FM011800 17023G33KT P6SM SCT060
     FM020300 18018G26KT P6SM VCTS SCT050 BKN150CB=



000
FTUS43 KICT 010522
TAFHUT
TAF
KHUT 010522Z 0106/0206 13008KT P6SM SCT250
      TEMPO 0111/0115 4SM BR BKN006
     FM011500 16016G24KT P6SM SCT012
     FM011700 17024G34KT P6SM SCT050=



000
FTUS43 KICT 312339
TAFICT
TAF
KICT 312339Z 0100/0124 12007KT P6SM SKC
     FM011000 14008KT P6SM OVC006
     FM011500 16016G24KT P6SM SCT005 BKN015
     FM011700 17022G32KT P6SM SCT030=



000
FTUS43 KICT 312339
TAFSLN
TAF
KSLN 312339Z 0100/0124 16007KT P6SM SKC
     FM011100 15013KT P6SM BKN006
     FM011600 17016G24KT P6SM SCT020
     FM011800 18021G31KT P6SM SCT020=



000
FTUS43 KICT 312339
TAFRSL
TAF
KRSL 312339Z 0100/0124 16011KT P6SM SKC
     FM011100 16011KT P6SM BKN006
     FM011600 17016G23KT P6SM SCT020=



000
FTUS43 KICT 312339
TAFCNU
TAF
KCNU 312339Z 0100/0124 11006KT P6SM SKC
     FM011000 13006KT P6SM SCT008 OVC012
     FM011500 17013KT P6SM SCT015
     FM011700 17017G25KT P6SM SCT030=



000
FTUS43 KICT 312339
TAFCNU
TAF
KCNU 312339Z 0100/0124 11006KT P6SM SKC
     FM011000 13006KT P6SM SCT008 OVC012
     FM011500 17013KT P6SM SCT015
     FM011700 17017G25KT P6SM SCT030=



000
FTUS43 KICT 312339
TAFRSL
TAF
KRSL 312339Z 0100/0124 16011KT P6SM SKC
     FM011100 16011KT P6SM BKN006
     FM011600 17016G23KT P6SM SCT020=



000
FTUS43 KICT 312339
TAFHUT
TAF
KHUT 312339Z 0100/0124 13008KT P6SM SKC
     FM011000 13008KT P6SM OVC005
     FM011500 16016G24KT P6SM SCT005 BKN012
     FM011700 17022G32KT P6SM SCT030=



000
FTUS43 KICT 312339
TAFICT
TAF
KICT 312339Z 0100/0124 12007KT P6SM SKC
     FM011000 14008KT P6SM OVC006
     FM011500 16016G24KT P6SM SCT005 BKN015
     FM011700 17022G32KT P6SM SCT030=



000
FTUS43 KICT 312339
TAFSLN
TAF
KSLN 312339Z 0100/0124 16007KT P6SM SKC
     FM011100 15013KT P6SM BKN006
     FM011600 17016G24KT P6SM SCT020
     FM011800 18021G31KT P6SM SCT020=



000
FTUS43 KICT 312044 AAC
TAFICT
TAF AMD
KICT 312044Z 3121/0118 09013KT P6SM SKC
     FM010000 11007KT P6SM SKC
     FM010900 15008KT P6SM BKN005
     FM011600 16015G22KT P6SM SCT005 BKN015=



000
FTUS43 KICT 311905 AAB
TAFHUT
TAF AMD
KHUT 311905Z 3119/0118 09013KT P6SM SKC
     FM010000 11007KT P6SM SKC
     FM011000 13008KT P6SM BKN005
     FM011600 16015G22KT P6SM SCT005 BKN012=



000
FTUS43 KICT 311905 AAB
TAFHUT
TAF AMD
KHUT 311905Z 3119/0118 09013KT P6SM SKC
     FM010000 11007KT P6SM SKC
     FM011000 13008KT P6SM BKN005
     FM011600 16015G22KT P6SM SCT005 BKN012=



000
FTUS43 KICT 311847 AAA
TAFHUT
TAF AMD
KHUT 311847Z 3119/0118 07013KT P6SM SKC
     FM010000 11007KT P6SM SKC
     FM011000 13008KT P6SM BKN005
     FM011600 16015G22KT P6SM SCT005 BKN012=



000
FTUS43 KICT 311847 AAA
TAFICT
TAF AMD
KICT 311847Z 3119/0118 07013KT P6SM SKC
     FM010000 11007KT P6SM SKC
     FM010900 15008KT P6SM BKN005
     FM011600 16015G22KT P6SM SCT005 BKN015=



000
FTUS43 KICT 311723
TAFSLN
TAF
KSLN 311723Z 3118/0118 09010KT P6SM SKC
     FM010000 13007KT P6SM SKC
     FM011200 16014KT P6SM SCT009
     FM011600 18017G22KT P6SM SCT020=



000
FTUS43 KICT 311723
TAFRSL
TAF
KRSL 311723Z 3118/0118 09013KT P6SM SKC
     FM010000 14008KT P6SM SKC
     FM011100 16014KT P6SM SCT009
     FM011600 18017G22KT P6SM SCT020=



000
FTUS43 KICT 311723
TAFCNU
TAF
KCNU 311723Z 3118/0118 05010KT P6SM SCT150
     FM010000 10009KT P6SM SKC
     FM011000 13008KT P6SM SCT008 BKN015
     FM011500 17017G25KT P6SM SCT015=



000
FTUS43 KICT 311723
TAFHUT
TAF
KHUT 311723Z 3118/0118 09013KT P6SM SKC
     FM010000 11007KT P6SM SKC
     FM011000 13008KT P6SM BKN005
     FM011600 16015G22KT P6SM SCT005 BKN012=



000
FTUS43 KICT 311723
TAFCNU
TAF
KCNU 311723Z 3118/0118 05010KT P6SM SCT150
     FM010000 10009KT P6SM SKC
     FM011000 13008KT P6SM SCT008 BKN015
     FM011500 17017G25KT P6SM SCT015=



000
FTUS43 KICT 311723
TAFRSL
TAF
KRSL 311723Z 3118/0118 09013KT P6SM SKC
     FM010000 14008KT P6SM SKC
     FM011100 16014KT P6SM SCT009
     FM011600 18017G22KT P6SM SCT020=



000
FTUS43 KICT 311723
TAFSLN
TAF
KSLN 311723Z 3118/0118 09010KT P6SM SKC
     FM010000 13007KT P6SM SKC
     FM011200 16014KT P6SM SCT009
     FM011600 18017G22KT P6SM SCT020=



000
FTUS43 KICT 311723
TAFICT
TAF
KICT 311723Z 3118/0118 09013KT P6SM SKC
     FM010000 11007KT P6SM SKC
     FM010900 15008KT P6SM BKN005
     FM011600 16015G22KT P6SM SCT005 BKN015=



000
FTUS43 KICT 311723
TAFHUT
TAF
KHUT 311723Z 3118/0118 09013KT P6SM SKC
     FM010000 11007KT P6SM SKC
     FM011000 13008KT P6SM BKN005
     FM011600 16015G22KT P6SM SCT005 BKN012=



000
FTUS43 KICT 311723
TAFICT
TAF
KICT 311723Z 3118/0118 09013KT P6SM SKC
     FM010000 11007KT P6SM SKC
     FM010900 15008KT P6SM BKN005
     FM011600 16015G22KT P6SM SCT005 BKN015=



000
FTUS43 KICT 311610 AAA
TAFSLN
TAF AMD
KSLN 311610Z 3116/0112 09010KT P6SM SKC
     FM010000 13007KT P6SM SKC
     FM010900 13008KT P6SM SCT012=



000
FTUS43 KICT 311610 AAA
TAFRSL
TAF AMD
KRSL 311610Z 3116/0112 09010KT P6SM SKC
     FM010000 14008KT P6SM SKC
     FM010900 14008KT P6SM SCT012=



000
FTUS43 KICT 311335 AAA
TAFICT
TAF AMD
KICT 311335Z 3114/0112 34007KT P6SM SCT120
     FM311400 36008KT P6SM SCT100
     FM311700 09013KT P6SM SKC
     FM010000 11007KT P6SM SKC
     FM010900 13008KT P6SM BKN005=



000
FTUS43 KICT 311335 AAA
TAFICT
TAF AMD
KICT 311335Z 3114/0112 34007KT P6SM SCT120
     FM311400 36008KT P6SM SCT100
     FM311700 09013KT P6SM SKC
     FM010000 11007KT P6SM SKC
     FM010900 13008KT P6SM BKN005=



000
FTUS43 KICT 311127
TAFHUT
TAF
KHUT 311127Z 3112/0112 34007KT P6SM SCT120
     FM311600 09013KT P6SM SKC
     FM010000 11007KT P6SM SKC
     FM010900 13008KT P6SM BKN005=



000
FTUS43 KICT 311127
TAFRSL
TAF
KRSL 311127Z 3112/0112 01007KT P6SM SCT120
     FM311300 04007KT P6SM SCT200
     FM311600 10012KT P6SM SKC
     FM010000 14008KT P6SM SKC
     FM010900 14008KT P6SM SCT012=



000
FTUS43 KICT 311127
TAFICT
TAF
KICT 311127Z 3112/0112 20007KT P6SM SCT120
      TEMPO 3112/3114 5SM BR
     FM311400 07008KT P6SM SCT100
     FM311700 09013KT P6SM SKC
     FM010000 11007KT P6SM SKC
     FM010900 13008KT P6SM BKN005=



000
FTUS43 KICT 311127
TAFCNU
TAF
KCNU 311127Z 3112/0112 13006KT P6SM SCT250
      TEMPO 3112/3114 5SM BR SCT009
     FM311400 33006KT P6SM SCT250
     FM311700 08010KT P6SM SCT150
     FM010000 09006KT P6SM SKC
     FM010900 11008KT P6SM SCT005=



000
FTUS43 KICT 311127
TAFSLN
TAF
KSLN 311127Z 3112/0112 31005KT P6SM SCT120
     FM311300 06006KT P6SM SKC
     FM311600 10012KT P6SM SKC
     FM010000 13007KT P6SM SKC
     FM010900 13008KT P6SM SCT012=



000
FTUS43 KICT 311006 AAA
TAFCNU
TAF AMD
KCNU 311006Z 3110/0106 13006KT P6SM SCT250
      TEMPO 3110/3114 5SM BR SCT009
     FM311400 33007KT P6SM FEW022 SCT250
     FM311700 08010KT P6SM FEW150
     FM010000 09006KT P6SM SKC=



000
FTUS43 KICT 311005 AAA
TAFICT
TAF AMD
KICT 311005Z 3110/0106 20007KT P6SM SCT250
      TEMPO 3110/3114 5SM BR
     FM311400 07008KT P6SM FEW100
     FM311700 09013KT P6SM SKC
     FM010000 11007KT P6SM SKC=



000
FTUS43 KICT 310522
TAFHUT
TAF
KHUT 310522Z 3106/0106 19006KT P6SM SCT250
     FM311000 34007KT P6SM SCT200
     FM311600 09013KT P6SM SKC
     FM010000 11007KT P6SM SKC=



000
FTUS43 KICT 310522
TAFSLN
TAF
KSLN 310522Z 3106/0106 VRB04KT P6SM FEW250
     FM310900 34005KT P6SM FEW200
     FM311300 06006KT P6SM SKC
     FM311600 10012KT P6SM SKC
     FM010000 13007KT P6SM SKC=



000
FTUS43 KICT 310522
TAFICT
TAF
KICT 310522Z 3106/0106 20007KT P6SM SCT250
     FM311000 VRB03KT 5SM BR FEW020 SCT200
     FM311400 07008KT P6SM FEW100
     FM311700 09013KT P6SM SKC
     FM010000 11007KT P6SM SKC=



000
FTUS43 KICT 310522
TAFRSL
TAF
KRSL 310522Z 3106/0106 01007KT P6SM FEW250
     FM311300 04007KT P6SM FEW200
     FM311600 10012KT P6SM SKC
     FM010000 14008KT P6SM SKC=



000
FTUS43 KICT 310522
TAFCNU
TAF
KCNU 310522Z 3106/0106 18006KT P6SM FEW250
     FM311000 VRB03KT 5SM BR SCT010
      TEMPO 3110/3114 3SM BR BKN009
     FM311400 33007KT P6SM FEW022 SCT250
     FM311700 08010KT P6SM FEW150
     FM010000 09006KT P6SM SKC=



000
FTUS43 KICT 310522
TAFHUT
TAF
KHUT 310522Z 3106/0106 19006KT P6SM SCT250
     FM311000 34007KT P6SM SCT200
     FM311600 09013KT P6SM SKC
     FM010000 11007KT P6SM SKC=



000
FTUS43 KICT 310522
TAFSLN
TAF
KSLN 310522Z 3106/0106 VRB04KT P6SM FEW250
     FM310900 34005KT P6SM FEW200
     FM311300 06006KT P6SM SKC
     FM311600 10012KT P6SM SKC
     FM010000 13007KT P6SM SKC=



000
FTUS43 KICT 310522
TAFRSL
TAF
KRSL 310522Z 3106/0106 01007KT P6SM FEW250
     FM311300 04007KT P6SM FEW200
     FM311600 10012KT P6SM SKC
     FM010000 14008KT P6SM SKC=



000
FTUS43 KICT 310522
TAFICT
TAF
KICT 310522Z 3106/0106 20007KT P6SM SCT250
     FM311000 VRB03KT 5SM BR FEW020 SCT200
     FM311400 07008KT P6SM FEW100
     FM311700 09013KT P6SM SKC
     FM010000 11007KT P6SM SKC=



000
FTUS43 KICT 310522
TAFCNU
TAF
KCNU 310522Z 3106/0106 18006KT P6SM FEW250
     FM311000 VRB03KT 5SM BR SCT010
      TEMPO 3110/3114 3SM BR BKN009
     FM311400 33007KT P6SM FEW022 SCT250
     FM311700 08010KT P6SM FEW150
     FM010000 09006KT P6SM SKC=



000
FTUS43 KICT 302335
TAFCNU
TAF
KCNU 302335Z 3100/3124 19006KT P6SM FEW250
     FM311100 VRB03KT 3SM BR SCT018
     FM311400 03004KT P6SM FEW022 SCT250
     FM311600 09007KT P6SM FEW150=



000
FTUS43 KICT 302335
TAFSLN
TAF
KSLN 302335Z 3100/3124 19007KT P6SM FEW250
     FM310500 VRB03KT P6SM SCT250
     FM310900 36005KT P6SM FEW200
     FM311300 06006KT P6SM SKC
     FM311600 11012KT P6SM SKC=



000
FTUS43 KICT 302335
TAFHUT
TAF
KHUT 302335Z 3100/3124 19012KT P6SM SCT250
     FM310100 19006KT P6SM SCT200
     FM310700 VRB04KT P6SM SCT200
     FM311600 09013KT P6SM FEW150=



000
FTUS43 KICT 302335
TAFRSL
TAF
KRSL 302335Z 3100/3124 32007KT P6SM SCT250
     FM310700 02007KT P6SM SCT200
     FM311500 10011KT P6SM SKC=



000
FTUS43 KICT 302335
TAFICT
TAF
KICT 302335Z 3100/3124 19012KT P6SM SCT250
     FM310100 19006KT P6SM SCT200
     FM311000 VRB03KT 5SM BR FEW020 SCT250
     FM311400 07008KT P6SM FEW100
     FM311700 10013KT P6SM FEW120=



000
FTUS43 KICT 301731 CCA
TAFICT
TAF COR
KICT 301731Z 3018/3118 19016G23KT P6SM SKC
     FM310000 17008KT P6SM SCT250
     FM311000 VRB03KT P6SM FEW020 SCT250
      TEMPO 3111/3114 5SM BR=



000
FTUS43 KICT 301731 CCA
TAFICT
TAF COR
KICT 301731Z 3018/3118 19016G23KT P6SM SKC
     FM310000 17008KT P6SM SCT250
     FM311000 VRB03KT P6SM FEW020 SCT250
      TEMPO 3111/3114 5SM BR=



000
FTUS43 KICT 301722
TAFSLN
TAF
KSLN 301722Z 3018/3118 20017G25KT P6SM SKC
     FM310000 18007KT P6SM SKC
     FM310500 VRB03KT P6SM SKC
     FM310800 01005KT P6SM SKC
     FM311200 07006KT P6SM SKC=



000
FTUS43 KICT 301722
TAFICT
TAF
KICT 301722Z 3018/3118 19016G23KT P6SM SKC
     FM310000 17008KT P6SM SCT250
     FM311000 VRB03KT 5SM BR FEW020 SCT250=



000
FTUS43 KICT 301722
TAFHUT
TAF
KHUT 301722Z 3018/3118 20016G23KT P6SM SKC
     FM310000 18007KT P6SM SCT250
     FM310900 01005KT P6SM SCT250
     FM311500 06005KT P6SM SCT250=



000
FTUS43 KICT 301722
TAFRSL
TAF
KRSL 301722Z 3018/3118 21017G25KT P6SM SKC
     FM310000 20010KT P6SM SKC
     FM310300 VRB03KT P6SM SKC
     FM310600 01007KT P6SM SKC
     FM311000 07006KT P6SM SKC
     FM311500 11009KT P6SM SKC=



000
FTUS43 KICT 301722
TAFCNU
TAF
KCNU 301722Z 3018/3118 19013KT P6SM SKC
     FM310000 17006KT P6SM SKC
     FM311100 22005KT 3SM BR SCT018
     FM311400 VRB03KT P6SM FEW022 SCT250=



000
FTUS43 KICT 301722
TAFICT
TAF
KICT 301722Z 3018/3118 19016G23KT P6SM SKC
     FM310000 17008KT P6SM SCT250
     FM311000 VRB03KT 5SM BR FEW020 SCT250=



000
FTUS43 KICT 301722
TAFCNU
TAF
KCNU 301722Z 3018/3118 19013KT P6SM SKC
     FM310000 17006KT P6SM SKC
     FM311100 22005KT 3SM BR SCT018
     FM311400 VRB03KT P6SM FEW022 SCT250=



000
FTUS43 KICT 301722
TAFRSL
TAF
KRSL 301722Z 3018/3118 21017G25KT P6SM SKC
     FM310000 20010KT P6SM SKC
     FM310300 VRB03KT P6SM SKC
     FM310600 01007KT P6SM SKC
     FM311000 07006KT P6SM SKC
     FM311500 11009KT P6SM SKC=



000
FTUS43 KICT 301722
TAFSLN
TAF
KSLN 301722Z 3018/3118 20017G25KT P6SM SKC
     FM310000 18007KT P6SM SKC
     FM310500 VRB03KT P6SM SKC
     FM310800 01005KT P6SM SKC
     FM311200 07006KT P6SM SKC=



000
FTUS43 KICT 301722
TAFHUT
TAF
KHUT 301722Z 3018/3118 20016G23KT P6SM SKC
     FM310000 18007KT P6SM SCT250
     FM310900 01005KT P6SM SCT250
     FM311500 06005KT P6SM SCT250=



000
FTUS43 KICT 301121
TAFICT
TAF
KICT 301121Z 3012/3112 VRB03KT P6SM SKC
     FM301400 17010KT P6SM SKC
     FM301800 20014G22KT P6SM SKC
     FM310000 18007KT P6SM SKC
     FM310600 22004KT P6SM BKN250=



000
FTUS43 KICT 301121
TAFCNU
TAF
KCNU 301121Z 3012/3112 VRB03KT P6SM SKC
     FM301600 18012KT P6SM SKC
     FM310000 19006KT P6SM SKC=



000
FTUS43 KICT 301121
TAFICT
TAF
KICT 301121Z 3012/3112 VRB03KT P6SM SKC
     FM301400 17010KT P6SM SKC
     FM301800 20014G22KT P6SM SKC
     FM310000 18007KT P6SM SKC
     FM310600 22004KT P6SM BKN250=



000
FTUS43 KICT 301121
TAFRSL
TAF
KRSL 301121Z 3012/3112 18008KT P6SM SKC
     FM301300 20010KT P6SM SKC
     FM301700 22017G25KT P6SM SKC
     FM310000 35006KT P6SM SKC
     FM310600 03006KT P6SM SKC=



000
FTUS43 KICT 301121
TAFSLN
TAF
KSLN 301121Z 3012/3112 17005KT P6SM SKC
     FM301400 19010KT P6SM SKC
     FM301700 21017G25KT P6SM SKC
     FM310000 18008KT P6SM SKC
     FM310600 VRB03KT P6SM SKC=



000
FTUS43 KICT 301121
TAFCNU
TAF
KCNU 301121Z 3012/3112 VRB03KT P6SM SKC
     FM301600 18012KT P6SM SKC
     FM310000 19006KT P6SM SKC=



000
FTUS43 KICT 301121
TAFHUT
TAF
KHUT 301121Z 3012/3112 VRB03KT P6SM SKC
     FM301400 19010KT P6SM SKC
     FM301700 20015G23KT P6SM SKC
     FM310000 18007KT P6SM SKC
     FM310600 22004KT P6SM BKN250=



000
FTUS43 KICT 301121
TAFSLN
TAF
KSLN 301121Z 3012/3112 17005KT P6SM SKC
     FM301400 19010KT P6SM SKC
     FM301700 21017G25KT P6SM SKC
     FM310000 18008KT P6SM SKC
     FM310600 VRB03KT P6SM SKC=



000
FTUS43 KICT 301121
TAFRSL
TAF
KRSL 301121Z 3012/3112 18008KT P6SM SKC
     FM301300 20010KT P6SM SKC
     FM301700 22017G25KT P6SM SKC
     FM310000 35006KT P6SM SKC
     FM310600 03006KT P6SM SKC=



000
FTUS43 KICT 301121
TAFHUT
TAF
KHUT 301121Z 3012/3112 VRB03KT P6SM SKC
     FM301400 19010KT P6SM SKC
     FM301700 20015G23KT P6SM SKC
     FM310000 18007KT P6SM SKC
     FM310600 22004KT P6SM BKN250=



000
FTUS43 KICT 300520
TAFICT
TAF
KICT 300520Z 3006/3106 VRB04KT P6SM SKC
     FM301400 17010KT P6SM SKC
     FM301800 20014G22KT P6SM SKC
     FM310000 18007KT P6SM SKC=



000
FTUS43 KICT 300520
TAFSLN
TAF
KSLN 300520Z 3006/3106 VRB06KT P6SM SKC
     FM301400 19010KT P6SM SKC
     FM301700 21017G25KT P6SM SKC
     FM310000 18008KT P6SM SKC=



000
FTUS43 KICT 300520
TAFHUT
TAF
KHUT 300520Z 3006/3106 VRB04KT P6SM SKC
     FM301400 19010KT P6SM SKC
     FM301700 20015G23KT P6SM SKC
     FM310000 18007KT P6SM SKC=



000
FTUS43 KICT 300520
TAFSLN
TAF
KSLN 300520Z 3006/3106 VRB06KT P6SM SKC
     FM301400 19010KT P6SM SKC
     FM301700 21017G25KT P6SM SKC
     FM310000 18008KT P6SM SKC=



000
FTUS43 KICT 300520
TAFCNU
TAF
KCNU 300520Z 3006/3106 02007KT P6SM SKC
     FM300900 VRB04KT P6SM SKC
     FM301600 18012KT P6SM SKC
     FM310000 19006KT P6SM SKC=



000
FTUS43 KICT 300520
TAFRSL
TAF
KRSL 300520Z 3006/3106 VRB06KT P6SM SKC
     FM301300 20010KT P6SM SKC
     FM301700 22017G25KT P6SM SKC
     FM310000 19005KT P6SM SKC=



000
FTUS43 KICT 300520
TAFRSL
TAF
KRSL 300520Z 3006/3106 VRB06KT P6SM SKC
     FM301300 20010KT P6SM SKC
     FM301700 22017G25KT P6SM SKC
     FM310000 19005KT P6SM SKC=



000
FTUS43 KICT 300520
TAFHUT
TAF
KHUT 300520Z 3006/3106 VRB04KT P6SM SKC
     FM301400 19010KT P6SM SKC
     FM301700 20015G23KT P6SM SKC
     FM310000 18007KT P6SM SKC=



000
FTUS43 KICT 300520
TAFICT
TAF
KICT 300520Z 3006/3106 VRB04KT P6SM SKC
     FM301400 17010KT P6SM SKC
     FM301800 20014G22KT P6SM SKC
     FM310000 18007KT P6SM SKC=



000
FTUS43 KICT 300520
TAFCNU
TAF
KCNU 300520Z 3006/3106 02007KT P6SM SKC
     FM300900 VRB04KT P6SM SKC
     FM301600 18012KT P6SM SKC
     FM310000 19006KT P6SM SKC=



000
FTUS43 KICT 292320
TAFICT
TAF
KICT 292320Z 3000/3024 36009KT P6SM SKC
     FM300300 VRB04KT P6SM SKC
     FM301400 17010KT P6SM SKC
     FM301800 20015G23KT P6SM SKC=



000
FTUS43 KICT 292320
TAFRSL
TAF
KRSL 292320Z 3000/3024 36010KT P6SM SKC
     FM300200 VRB04KT P6SM SKC
     FM301300 20010KT P6SM SKC
     FM301700 21017G25KT P6SM SKC=



000
FTUS43 KICT 292320
TAFSLN
TAF
KSLN 292320Z 3000/3024 36010KT P6SM SKC
     FM300200 VRB04KT P6SM SKC
     FM301400 19010KT P6SM SKC
     FM301800 20017G25KT P6SM SKC=



000
FTUS43 KICT 292320
TAFCNU
TAF
KCNU 292320Z 3000/3024 36007KT P6SM SKC
     FM300700 VRB04KT P6SM SKC
     FM301600 19010KT P6SM SKC=



000
FTUS43 KICT 292320
TAFHUT
TAF
KHUT 292320Z 3000/3024 36009KT P6SM SKC
     FM300300 VRB04KT P6SM SKC
     FM301400 19010KT P6SM SKC
     FM301800 20017G25KT P6SM SKC=



000
FTUS43 KICT 292320
TAFSLN
TAF
KSLN 292320Z 3000/3024 36010KT P6SM SKC
     FM300200 VRB04KT P6SM SKC
     FM301400 19010KT P6SM SKC
     FM301800 20017G25KT P6SM SKC=



000
FTUS43 KICT 292320
TAFCNU
TAF
KCNU 292320Z 3000/3024 36007KT P6SM SKC
     FM300700 VRB04KT P6SM SKC
     FM301600 19010KT P6SM SKC=



000
FTUS43 KICT 292320
TAFRSL
TAF
KRSL 292320Z 3000/3024 36010KT P6SM SKC
     FM300200 VRB04KT P6SM SKC
     FM301300 20010KT P6SM SKC
     FM301700 21017G25KT P6SM SKC=



000
FTUS43 KICT 292320
TAFICT
TAF
KICT 292320Z 3000/3024 36009KT P6SM SKC
     FM300300 VRB04KT P6SM SKC
     FM301400 17010KT P6SM SKC
     FM301800 20015G23KT P6SM SKC=



000
FTUS43 KICT 292320
TAFHUT
TAF
KHUT 292320Z 3000/3024 36009KT P6SM SKC
     FM300300 VRB04KT P6SM SKC
     FM301400 19010KT P6SM SKC
     FM301800 20017G25KT P6SM SKC=



000
FTUS43 KICT 291733
TAFSLN
TAF
KSLN 291733Z 2918/3018 35020G30KT P6SM SKC
     FM292100 36017G22KT P6SM SKC
     FM300000 36007KT P6SM SKC
     FM300300 VRB06KT P6SM SKC=



000
FTUS43 KICT 291733
TAFRSL
TAF
KRSL 291733Z 2918/3018 35025G35KT P6SM SKC
     FM292100 36017G22KT P6SM SKC
     FM300000 36007KT P6SM SKC
     FM300300 VRB06KT P6SM SKC=



000
FTUS43 KICT 291733
TAFCNU
TAF
KCNU 291733Z 2918/3018 22013KT P6SM BKN100
     FM291900 34012G18KT P6SM SCT150
     FM300000 33007KT P6SM SKC
     FM300600 VRB03KT P6SM SKC=



000
FTUS43 KICT 291733
TAFCNU
TAF
KCNU 291733Z 2918/3018 22013KT P6SM BKN100
     FM291900 34012G18KT P6SM SCT150
     FM300000 33007KT P6SM SKC
     FM300600 VRB03KT P6SM SKC=



000
FTUS43 KICT 291733
TAFICT
TAF
KICT 291733Z 2918/3018 35020G28KT P6SM SCT120 SCT250
     FM300000 36009KT P6SM SKC
     FM300300 VRB05KT P6SM SKC=



000
FTUS43 KICT 291733
TAFRSL
TAF
KRSL 291733Z 2918/3018 35025G35KT P6SM SKC
     FM292100 36017G22KT P6SM SKC
     FM300000 36007KT P6SM SKC
     FM300300 VRB06KT P6SM SKC=



000
FTUS43 KICT 291733
TAFSLN
TAF
KSLN 291733Z 2918/3018 35020G30KT P6SM SKC
     FM292100 36017G22KT P6SM SKC
     FM300000 36007KT P6SM SKC
     FM300300 VRB06KT P6SM SKC=



000
FTUS43 KICT 291733
TAFHUT
TAF
KHUT 291733Z 2918/3018 35020G28KT P6SM SCT250
     FM292100 35014KT P6SM SKC
     FM300300 VRB04KT P6SM SKC=



000
FTUS43 KICT 291733
TAFHUT
TAF
KHUT 291733Z 2918/3018 35020G28KT P6SM SCT250
     FM292100 35014KT P6SM SKC
     FM300300 VRB04KT P6SM SKC=



000
FTUS43 KICT 291733
TAFICT
TAF
KICT 291733Z 2918/3018 35020G28KT P6SM SCT120 SCT250
     FM300000 36009KT P6SM SKC
     FM300300 VRB05KT P6SM SKC=



    US Dept of Commerce
    National Oceanic and Atmospheric Administration
    National Weather Service
    1325 East West Highway
    Silver Spring, MD 20910
    Page Author: NWS Internet Services Team
Disclaimer
Information Quality
Credits
Glossary
Privacy Policy
Freedom of Information Act (FOIA)
About Us
Career Opportunities